Time;durP1;ratioP1;P1;durP2;ratioP2;P2;SDS_P1;SDS_P2;PMS_P1;PMS_P2;Temp;Humidity;BMP_temperature;BMP_pressure;BME280_temperature;BME280_humidity;BME280_pressure;Samples;Min_cycle;Max_cycle;Signal;HPM_P1;HPM_P2
2022/07/21 00:02:25;;;;;;;4.18;1.10;;;;;;;;;;6301122;22;20011;-45
2022/07/21 00:04:52;;;;;;;7.05;1.25;;;;;;;;;;6294613;22;20095;-44
2022/07/21 00:07:19;;;;;;;2.80;1.10;;;;;;;;;;6297348;22;20015;-44
2022/07/21 00:09:45;;;;;;;5.18;1.17;;;;;;;;;;6294550;22;20019;-45
2022/07/21 00:12:12;;;;;;;2.90;1.05;;;;;;;;;;6293956;22;20369;-45
2022/07/21 00:14:38;;;;;;;2.63;1.20;;;;;;;;;;6298783;22;20019;-47
2022/07/21 00:17:06;;;;;;;1.23;1.00;;;;;;;;;;6295083;22;20007;-45
2022/07/21 00:19:33;;;;;;;2.13;1.27;;;;;;;;;;6292569;22;20026;-45
2022/07/21 00:22:00;;;;;;;3.42;1.20;;;;;;;;;;6296492;22;20015;-46
2022/07/21 00:24:26;;;;;;;7.07;1.58;;;;;;;;;;6289739;22;20510;-49
2022/07/21 00:26:53;;;;;;;4.40;1.35;;;;;;;;;;6286427;22;20252;-45
2022/07/21 00:29:19;;;;;;;2.65;1.38;;;;;;;;;;6296586;22;20011;-47
2022/07/21 00:31:46;;;;;;;2.33;1.35;;;;;;;;;;6300162;22;20015;-44
2022/07/21 00:34:14;;;;;;;5.82;2.83;;;;;;;;;;6292879;22;20020;-50
2022/07/21 00:36:40;;;;;;;2.90;1.35;;;;;;;;;;6299901;22;20011;-45
2022/07/21 00:39:07;;;;;;;8.27;1.38;;;;;;;;;;6289556;22;20384;-47
2022/07/21 00:41:34;;;;;;;2.70;1.40;;;;;;;;;;6294321;22;20560;-45
2022/07/21 00:44:01;;;;;;;3.80;1.10;;;;;;;;;;6296971;22;20039;-47
2022/07/21 00:46:27;;;;;;;2.65;1.30;;;;;;;;;;6292351;22;20026;-48
2022/07/21 00:48:54;;;;;;;2.65;1.27;;;;;;;;;;6292693;22;20694;-51
2022/07/21 00:51:22;;;;;;;5.75;1.33;;;;;;;;;;6294823;22;20078;-47
2022/07/21 00:53:48;;;;;;;2.55;1.25;;;;;;;;;;6293781;22;20018;-44
2022/07/21 00:56:15;;;;;;;4.32;1.33;;;;;;;;;;6297609;22;20018;-46
2022/07/21 00:58:42;;;;;;;4.93;1.13;;;;;;;;;;6294818;22;20414;-46
2022/07/21 01:01:10;;;;;;;3.40;1.30;;;;;;;;;;6295098;22;20015;-48
2022/07/21 01:03:37;;;;;;;2.38;1.48;;;;;;;;;;6277583;22;20353;-48
2022/07/21 01:06:04;;;;;;;0.90;0.90;;;;;;;;;;6302988;22;20321;-48
2022/07/21 01:08:32;;;;;;;1.85;1.02;;;;;;;;;;6290047;22;20015;-44
2022/07/21 01:10:59;;;;;;;2.35;1.10;;;;;;;;;;6292168;22;20039;-45
2022/07/21 01:13:25;;;;;;;2.88;1.10;;;;;;;;;;6294238;22;20318;-46
2022/07/21 01:15:52;;;;;;;2.30;1.23;;;;;;;;;;6301198;22;20011;-44
2022/07/21 01:18:19;;;;;;;7.22;1.30;;;;;;;;;;6291155;22;20094;-49
2022/07/21 01:20:49;;;;;;;6.03;1.48;;;;;;;;;;6296818;22;20114;-46
2022/07/21 01:23:16;;;;;;;5.70;1.42;;;;;;;;;;6293674;22;20018;-46
2022/07/21 01:25:47;;;;;;;2.95;1.40;;;;;;;;;;6299344;22;20073;-47
2022/07/21 01:28:15;;;;;;;5.45;1.45;;;;;;;;;;6299261;22;20027;-47
2022/07/21 01:30:43;;;;;;;2.55;1.35;;;;;;;;;;6291090;22;20338;-52
2022/07/21 01:33:10;;;;;;;3.17;1.00;;;;;;;;;;6297178;22;20011;-46
2022/07/21 01:35:36;;;;;;;1.40;1.00;;;;;;;;;;6289925;22;20011;-50
2022/07/21 01:38:03;;;;;;;2.75;1.20;;;;;;;;;;6301026;22;20011;-49
2022/07/21 01:43:15;;;;;;;2.92;1.02;;;;;;;;;;6288092;22;20019;-48
2022/07/21 01:45:42;;;;;;;3.15;1.35;;;;;;;;;;6290988;22;20577;-44
2022/07/21 01:48:08;;;;;;;3.08;1.55;;;;;;;;;;6276987;22;20381;-47
2022/07/21 01:50:35;;;;;;;2.13;1.40;;;;;;;;;;6298283;22;20684;-47
2022/07/21 01:53:02;;;;;;;3.63;1.50;;;;;;;;;;6299266;22;20020;-49
2022/07/21 01:55:29;;;;;;;2.42;1.40;;;;;;;;;;6299132;22;20017;-49
2022/07/21 01:57:57;;;;;;;3.70;2.70;;;;;;;;;;6269628;22;20016;-47
2022/07/21 02:00:24;;;;;;;6.88;1.13;;;;;;;;;;6294306;22;20362;-46
2022/07/21 02:02:50;;;;;;;3.00;1.15;;;;;;;;;;6298498;22;20018;-46
2022/07/21 02:05:17;;;;;;;1.77;1.20;;;;;;;;;;6290326;22;20363;-48
2022/07/21 02:07:44;;;;;;;3.80;1.20;;;;;;;;;;6297581;22;20015;-49
2022/07/21 02:10:10;;;;;;;3.92;1.38;;;;;;;;;;6294060;22;20011;-45
2022/07/21 02:12:38;;;;;;;3.20;1.30;;;;;;;;;;6300884;22;20091;-47
2022/07/21 02:15:08;;;;;;;3.97;1.55;;;;;;;;;;6297141;22;20015;-45
2022/07/21 02:17:34;;;;;;;4.10;1.40;;;;;;;;;;6298490;22;20019;-49
2022/07/21 02:20:01;;;;;;;2.53;1.42;;;;;;;;;;6294232;22;20011;-43
2022/07/21 02:22:27;;;;;;;1.92;1.63;;;;;;;;;;6298201;22;20019;-45
2022/07/21 02:24:54;;;;;;;3.72;1.35;;;;;;;;;;6286707;22;20473;-45
2022/07/21 02:27:20;;;;;;;5.07;1.85;;;;;;;;;;6298526;22;20008;-43
2022/07/21 02:29:47;;;;;;;4.00;1.40;;;;;;;;;;6291611;22;20019;-43
2022/07/21 02:32:15;;;;;;;3.53;1.48;;;;;;;;;;6300546;22;20045;-47
2022/07/21 02:34:41;;;;;;;4.55;1.58;;;;;;;;;;6292716;22;20328;-46
2022/07/21 02:37:08;;;;;;;4.03;1.60;;;;;;;;;;6294704;22;20377;-48
2022/07/21 02:39:34;;;;;;;3.58;2.13;;;;;;;;;;6294552;22;20340;-46
2022/07/21 02:42:01;;;;;;;5.00;1.60;;;;;;;;;;6295272;22;20407;-50
2022/07/21 02:44:29;;;;;;;1.85;1.65;;;;;;;;;;6299327;22;20015;-46
2022/07/21 02:46:55;;;;;;;5.10;1.77;;;;;;;;;;6297037;22;20015;-46
2022/07/21 02:49:23;;;;;;;2.13;1.20;;;;;;;;;;6293866;22;20536;-45
2022/07/21 02:51:50;;;;;;;3.83;1.50;;;;;;;;;;6294610;22;20019;-48
2022/07/21 02:54:16;;;;;;;4.13;1.88;;;;;;;;;;6287706;22;20329;-49
2022/07/21 02:56:43;;;;;;;3.63;1.40;;;;;;;;;;6291453;22;20012;-45
2022/07/21 02:59:10;;;;;;;2.85;1.55;;;;;;;;;;6296206;22;20015;-45
2022/07/21 03:01:36;;;;;;;2.00;1.60;;;;;;;;;;6296589;22;20035;-48
2022/07/21 03:04:03;;;;;;;4.20;1.85;;;;;;;;;;6293872;22;20015;-53
2022/07/21 03:06:31;;;;;;;2.60;1.73;;;;;;;;;;6290369;22;20022;-49
2022/07/21 03:08:58;;;;;;;4.22;1.60;;;;;;;;;;6290849;22;20015;-47
2022/07/21 03:11:25;;;;;;;3.53;1.85;;;;;;;;;;6298968;22;20015;-44
2022/07/21 03:13:51;;;;;;;2.63;1.90;;;;;;;;;;6299968;22;20015;-45
2022/07/21 03:16:18;;;;;;;2.15;1.73;;;;;;;;;;6292464;22;20018;-46
2022/07/21 03:18:45;;;;;;;5.40;2.08;;;;;;;;;;6299703;22;20019;-47
2022/07/21 03:21:11;;;;;;;3.38;1.60;;;;;;;;;;6280115;22;20045;-47
2022/07/21 03:23:39;;;;;;;3.83;2.03;;;;;;;;;;6294513;22;20464;-45
2022/07/21 03:26:06;;;;;;;4.32;1.75;;;;;;;;;;6294060;22;20452;-46
2022/07/21 03:28:33;;;;;;;2.72;2.28;;;;;;;;;;6300742;22;20054;-47
2022/07/21 03:30:59;;;;;;;2.10;1.90;;;;;;;;;;6290814;22;20046;-46
2022/07/21 03:33:26;;;;;;;6.93;1.88;;;;;;;;;;6300680;22;20012;-47
2022/07/21 03:35:56;;;;;;;4.32;1.88;;;;;;;;;;6284768;22;20021;-45
2022/07/21 03:38:24;;;;;;;2.88;1.70;;;;;;;;;;6265980;22;20372;-46
2022/07/21 03:40:52;;;;;;;6.93;2.60;;;;;;;;;;6286607;22;20015;-46
2022/07/21 03:43:19;;;;;;;4.38;3.42;;;;;;;;;;6298584;22;20046;-47
2022/07/21 03:45:46;;;;;;;7.28;2.40;;;;;;;;;;6279582;22;20023;-49
2022/07/21 03:48:13;;;;;;;8.20;2.47;;;;;;;;;;6291631;22;20041;-51
2022/07/21 03:50:40;;;;;;;8.18;2.42;;;;;;;;;;6303091;22;20018;-51
2022/07/21 03:53:08;;;;;;;3.65;2.13;;;;;;;;;;6277201;22;20019;-46
2022/07/21 03:55:35;;;;;;;5.03;2.22;;;;;;;;;;6299818;22;20243;-52
2022/07/21 03:58:04;;;;;;;4.45;2.10;;;;;;;;;;6293469;22;20020;-52
2022/07/21 04:00:32;;;;;;;2.97;2.47;;;;;;;;;;6300508;22;20012;-46
2022/07/21 04:03:01;;;;;;;6.55;2.53;;;;;;;;;;6285470;22;20015;-47
2022/07/21 04:05:29;;;;;;;5.30;2.47;;;;;;;;;;6258512;22;20746;-49
2022/07/21 04:07:56;;;;;;;4.90;2.13;;;;;;;;;;6294388;22;20181;-51
2022/07/21 04:10:24;;;;;;;5.10;2.28;;;;;;;;;;6291940;22;20015;-48
2022/07/21 04:12:50;;;;;;;3.20;2.22;;;;;;;;;;6291581;22;20015;-51
2022/07/21 04:15:18;;;;;;;4.05;2.05;;;;;;;;;;6290516;22;20025;-45
2022/07/21 04:17:46;;;;;;;4.15;2.35;;;;;;;;;;6298904;22;20026;-44
2022/07/21 04:20:13;;;;;;;5.35;2.28;;;;;;;;;;6286083;22;20027;-48
2022/07/21 04:22:40;;;;;;;5.20;2.80;;;;;;;;;;6299191;22;20026;-44
2022/07/21 04:25:07;;;;;;;3.60;2.20;;;;;;;;;;6288545;22;20007;-45
2022/07/21 04:27:34;;;;;;;3.33;2.00;;;;;;;;;;6301295;22;20057;-44
2022/07/21 04:30:01;;;;;;;5.70;2.17;;;;;;;;;;6293289;22;20011;-47
2022/07/21 04:32:29;;;;;;;4.80;2.20;;;;;;;;;;6298995;22;20016;-45
2022/07/21 04:34:55;;;;;;;8.05;2.53;;;;;;;;;;6295350;22;20593;-45
2022/07/21 04:37:22;;;;;;;5.60;2.10;;;;;;;;;;6291924;22;20011;-47
2022/07/21 04:39:48;;;;;;;8.52;2.40;;;;;;;;;;6292624;22;20015;-50
2022/07/21 04:42:15;;;;;;;5.75;2.60;;;;;;;;;;6289543;22;20560;-46
2022/07/21 04:44:41;;;;;;;5.03;2.08;;;;;;;;;;6301428;22;20021;-46
2022/07/21 04:47:08;;;;;;;3.83;2.15;;;;;;;;;;6292586;22;20060;-47
2022/07/21 04:49:36;;;;;;;2.60;1.95;;;;;;;;;;6292674;22;20019;-47
2022/07/21 04:52:03;;;;;;;3.55;2.17;;;;;;;;;;6295494;22;20018;-46
2022/07/21 04:54:29;;;;;;;5.38;2.08;;;;;;;;;;6297907;22;20035;-44
2022/07/21 04:56:56;;;;;;;3.08;2.20;;;;;;;;;;6294000;22;20011;-49
2022/07/21 04:59:22;;;;;;;5.65;2.00;;;;;;;;;;6290386;22;20019;-46
2022/07/21 05:01:49;;;;;;;3.60;1.92;;;;;;;;;;6299177;22;20019;-47
2022/07/21 05:04:16;;;;;;;5.30;2.20;;;;;;;;;;6287589;22;20809;-44
2022/07/21 05:06:44;;;;;;;2.42;1.63;;;;;;;;;;6297788;22;20023;-44
2022/07/21 05:09:11;;;;;;;6.45;2.20;;;;;;;;;;6295856;22;20030;-46
2022/07/21 05:11:37;;;;;;;4.63;1.73;;;;;;;;;;6295550;22;20391;-46
2022/07/21 05:14:04;;;;;;;2.65;1.65;;;;;;;;;;6296839;22;20011;-46
2022/07/21 05:16:30;;;;;;;2.30;1.67;;;;;;;;;;6280286;22;20046;-46
2022/07/21 05:18:57;;;;;;;2.92;1.50;;;;;;;;;;6290628;22;20035;-44
2022/07/21 05:21:23;;;;;;;5.20;2.22;;;;;;;;;;6292431;22;20068;-45
2022/07/21 05:23:52;;;;;;;6.78;1.50;;;;;;;;;;6299703;22;20030;-47
2022/07/21 05:26:18;;;;;;;2.10;1.55;;;;;;;;;;6291574;22;20019;-46
2022/07/21 05:28:45;;;;;;;3.78;1.73;;;;;;;;;;6299362;22;20130;-45
2022/07/21 05:31:11;;;;;;;4.20;1.83;;;;;;;;;;6292722;22;20015;-47
2022/07/21 05:33:38;;;;;;;4.97;1.60;;;;;;;;;;6300020;22;20015;-47
2022/07/21 05:36:05;;;;;;;4.72;1.90;;;;;;;;;;6292776;22;20015;-46
2022/07/21 05:38:31;;;;;;;4.30;2.50;;;;;;;;;;6298940;22;20034;-46
2022/07/21 05:41:02;;;;;;;7.50;1.80;;;;;;;;;;6288695;22;20015;-46
2022/07/21 05:43:29;;;;;;;3.28;1.58;;;;;;;;;;6299483;22;20034;-45
2022/07/21 05:45:55;;;;;;;5.47;2.10;;;;;;;;;;6292337;22;20030;-51
2022/07/21 05:48:22;;;;;;;2.25;1.20;;;;;;;;;;6300600;22;20020;-47
2022/07/21 05:50:48;;;;;;;5.50;1.70;;;;;;;;;;6296634;22;20022;-47
2022/07/21 05:53:15;;;;;;;4.97;1.70;;;;;;;;;;6280726;22;20023;-49
2022/07/21 05:55:42;;;;;;;5.28;1.63;;;;;;;;;;6298710;22;20658;-45
2022/07/21 05:58:11;;;;;;;7.28;2.22;;;;;;;;;;6285477;22;20023;-48
2022/07/21 06:00:38;;;;;;;2.05;1.60;;;;;;;;;;6293455;22;20018;-45
2022/07/21 06:03:05;;;;;;;6.15;1.88;;;;;;;;;;6295017;22;20066;-46
2022/07/21 06:05:31;;;;;;;6.15;1.95;;;;;;;;;;6292543;22;20050;-46
2022/07/21 06:08:00;;;;;;;5.68;1.85;;;;;;;;;;6293413;22;20358;-47
2022/07/21 06:10:27;;;;;;;3.10;1.52;;;;;;;;;;6301259;22;20021;-45
2022/07/21 06:12:57;;;;;;;3.22;1.50;;;;;;;;;;6291354;22;20340;-48
2022/07/21 06:15:23;;;;;;;;;;;;;;;;;;6301034;22;20015;-46
2022/07/21 06:17:51;;;;;;;3.30;1.30;;;;;;;;;;6291084;22;19963;-46
2022/07/21 06:20:18;;;;;;;5.40;1.50;;;;;;;;;;6299481;22;20015;-47
2022/07/21 06:22:44;;;;;;;4.15;1.63;;;;;;;;;;6290897;22;20015;-46
2022/07/21 06:25:11;;;;;;;2.42;1.23;;;;;;;;;;6294089;22;20019;-49
2022/07/21 06:27:37;;;;;;;1.85;1.65;;;;;;;;;;6285468;22;20038;-46
2022/07/21 06:30:06;;;;;;;2.40;1.52;;;;;;;;;;6279930;22;20016;-46
2022/07/21 06:32:33;;;;;;;2.75;1.35;;;;;;;;;;6276461;22;20035;-48
2022/07/21 06:35:01;;;;;;;6.50;1.73;;;;;;;;;;6282545;22;20018;-44
2022/07/21 06:37:28;;;;;;;4.22;1.63;;;;;;;;;;6282742;22;20015;-48
2022/07/21 06:39:54;;;;;;;4.45;1.85;;;;;;;;;;6286273;22;20057;-49
2022/07/21 06:42:21;;;;;;;2.75;1.35;;;;;;;;;;6285613;22;20473;-50
2022/07/21 06:44:47;;;;;;;5.50;1.50;;;;;;;;;;6290503;22;20342;-51
2022/07/21 06:47:14;;;;;;;3.05;1.52;;;;;;;;;;6297293;22;20019;-47
2022/07/21 06:49:40;;;;;;;6.20;1.83;;;;;;;;;;6286935;22;20075;-47
2022/07/21 06:52:08;;;;;;;4.88;1.70;;;;;;;;;;6294246;22;20033;-45
2022/07/21 06:54:35;;;;;;;3.97;1.60;;;;;;;;;;6293640;22;20021;-50
2022/07/21 06:57:01;;;;;;;8.55;1.77;;;;;;;;;;6297920;22;20015;-54
2022/07/21 06:59:28;;;;;;;5.32;1.83;;;;;;;;;;6273104;22;20387;-50
2022/07/21 07:01:55;;;;;;;6.60;1.73;;;;;;;;;;6293816;22;20089;-48
2022/07/21 07:04:21;;;;;;;7.60;2.05;;;;;;;;;;6295953;22;20041;-50
2022/07/21 07:06:51;;;;;;;5.70;1.48;;;;;;;;;;6286771;22;20049;-50
2022/07/21 07:09:19;;;;;;;3.53;1.60;;;;;;;;;;6288228;22;20398;-49
2022/07/21 07:11:47;;;;;;;10.00;2.13;;;;;;;;;;6284370;22;20015;-52
2022/07/21 07:14:14;;;;;;;5.43;2.65;;;;;;;;;;6292219;22;20088;-51
2022/07/21 07:16:40;;;;;;;6.82;2.05;;;;;;;;;;6293579;22;20011;-48
2022/07/21 07:19:07;;;;;;;4.00;1.70;;;;;;;;;;6290163;22;20046;-49
2022/07/21 07:21:33;;;;;;;7.45;2.67;;;;;;;;;;6281112;22;20455;-49
2022/07/21 07:24:01;;;;;;;8.32;2.70;;;;;;;;;;6296363;22;20045;-51
2022/07/21 07:26:29;;;;;;;7.32;2.10;;;;;;;;;;6294410;22;20019;-52
2022/07/21 07:28:56;;;;;;;10.45;2.75;;;;;;;;;;6290342;22;20041;-52
2022/07/21 07:31:23;;;;;;;7.70;2.20;;;;;;;;;;6293735;22;20078;-54
2022/07/21 07:33:52;;;;;;;4.40;1.67;;;;;;;;;;6301533;22;20061;-52
2022/07/21 07:36:18;;;;;;;9.90;2.30;;;;;;;;;;6291758;22;20015;-50
2022/07/21 07:38:47;;;;;;;4.07;2.00;;;;;;;;;;6276305;22;20041;-47
2022/07/21 07:41:14;;;;;;;2.78;1.80;;;;;;;;;;6289607;22;20518;-49
2022/07/21 07:43:42;;;;;;;4.60;1.98;;;;;;;;;;6303309;22;20011;-51
2022/07/21 07:46:10;;;;;;;5.63;2.10;;;;;;;;;;6274669;22;20026;-49
2022/07/21 07:48:37;;;;;;;2.83;1.88;;;;;;;;;;6291148;22;20015;-49
2022/07/21 07:51:04;;;;;;;5.75;1.88;;;;;;;;;;6297124;22;20025;-51
2022/07/21 07:53:30;;;;;;;3.53;2.10;;;;;;;;;;6295641;22;20432;-48
2022/07/21 07:55:57;;;;;;;6.35;1.52;;;;;;;;;;6292356;22;20011;-46
2022/07/21 07:58:23;;;;;;;6.50;1.73;;;;;;;;;;6296318;22;20074;-48
2022/07/21 08:00:52;;;;;;;6.72;2.00;;;;;;;;;;6268047;22;20015;-48
2022/07/21 08:03:18;;;;;;;7.63;2.00;;;;;;;;;;6299761;22;20129;-48
2022/07/21 08:05:45;;;;;;;3.95;1.83;;;;;;;;;;6285425;22;20544;-50
2022/07/21 08:08:12;;;;;;;7.72;2.22;;;;;;;;;;6295128;22;20034;-47
2022/07/21 08:10:38;;;;;;;5.40;2.05;;;;;;;;;;6295115;22;20122;-54
2022/07/21 08:13:05;;;;;;;4.18;2.08;;;;;;;;;;6289569;22;20012;-51
2022/07/21 08:15:32;;;;;;;6.07;1.92;;;;;;;;;;6224791;22;20073;-51
2022/07/21 08:18:01;;;;;;;9.32;2.92;;;;;;;;;;6199079;23;20028;-49
2022/07/21 08:20:27;;;;;;;6.30;2.33;;;;;;;;;;6208719;23;20040;-52
2022/07/21 08:22:54;;;;;;;3.35;1.85;;;;;;;;;;6200080;23;20392;-46
2022/07/21 08:25:21;;;;;;;5.18;2.08;;;;;;;;;;6203541;23;20360;-51
2022/07/21 08:27:47;;;;;;;4.43;1.70;;;;;;;;;;6197712;23;20470;-47
2022/07/21 08:30:14;;;;;;;7.68;2.17;;;;;;;;;;6205994;23;20374;-49
2022/07/21 08:32:41;;;;;;;5.65;2.60;;;;;;;;;;6191055;23;20240;-48
2022/07/21 08:35:09;;;;;;;7.13;2.08;;;;;;;;;;6207947;23;20463;-50
2022/07/21 08:37:36;;;;;;;6.60;2.78;;;;;;;;;;6202649;23;20464;-49
2022/07/21 08:40:03;;;;;;;4.13;2.38;;;;;;;;;;6207181;23;20012;-50
2022/07/21 08:42:30;;;;;;;4.00;1.80;;;;;;;;;;6197163;23;20066;-47
2022/07/21 08:44:57;;;;;;;5.43;2.40;;;;;;;;;;6205054;23;20032;-49
2022/07/21 08:47:24;;;;;;;8.93;3.03;;;;;;;;;;6203907;23;20020;-50
2022/07/21 08:49:51;;;;;;;9.57;3.00;;;;;;;;;;6206975;23;20017;-48
2022/07/21 08:52:19;;;;;;;5.40;1.92;;;;;;;;;;6200408;23;20444;-49
2022/07/21 08:54:45;;;;;;;7.53;2.80;;;;;;;;;;6198489;23;20021;-48
2022/07/21 08:57:12;;;;;;;7.00;2.17;;;;;;;;;;6205458;23;20013;-49
2022/07/21 08:59:41;;;;;;;3.63;1.70;;;;;;;;;;6193570;23;20036;-52
2022/07/21 09:02:23;;;;;;;3.53;1.93;;;;;;;;;;6206765;23;20013;-48
2022/07/21 09:04:51;;;;;;;4.15;2.15;;;;;;;;;;6202521;23;20090;-48
2022/07/21 09:07:19;;;;;;;8.70;2.95;;;;;;;;;;6207702;23;20020;-48
2022/07/21 09:09:54;;;;;;;8.13;2.40;;;;;;;;;;6199548;23;20013;-47
2022/07/21 09:12:21;;;;;;;4.32;2.28;;;;;;;;;;6202308;23;20020;-46
2022/07/21 09:14:48;;;;;;;5.05;2.40;;;;;;;;;;6170908;23;20031;-49
2022/07/21 09:17:17;;;;;;;4.68;2.22;;;;;;;;;;6211698;23;20493;-47
2022/07/21 09:19:46;;;;;;;9.55;2.28;;;;;;;;;;6197390;23;20474;-46
2022/07/21 09:22:16;;;;;;;7.00;2.50;;;;;;;;;;6201314;23;20097;-46
2022/07/21 09:24:49;;;;;;;5.55;1.90;;;;;;;;;;6209107;23;20016;-46
2022/07/21 09:27:16;;;;;;;6.15;2.28;;;;;;;;;;6207270;23;20055;-46
2022/07/21 09:29:43;;;;;;;5.50;2.28;;;;;;;;;;6200039;23;20032;-48
2022/07/21 09:32:15;;;;;;;8.55;2.75;;;;;;;;;;6203236;23;20020;-49
2022/07/21 09:34:41;;;;;;;7.15;2.47;;;;;;;;;;6174197;23;20138;-50
2022/07/21 09:37:08;;;;;;;5.28;2.08;;;;;;;;;;6206016;23;20013;-49
2022/07/21 09:39:42;;;;;;;5.38;2.38;;;;;;;;;;6203808;23;20080;-50
2022/07/21 09:42:17;;;;;;;6.82;3.25;;;;;;;;;;6208881;23;20012;-50
2022/07/21 09:44:44;;;;;;;4.95;2.70;;;;;;;;;;6203052;23;20040;-52
2022/07/21 09:47:12;;;;;;;7.68;2.95;;;;;;;;;;6199910;23;20108;-47
2022/07/21 09:49:39;;;;;;;7.05;2.80;;;;;;;;;;6192018;23;20043;-48
2022/07/21 09:52:18;;;;;;;5.68;2.33;;;;;;;;;;6200916;23;20332;-46
2022/07/21 09:54:45;;;;;;;4.13;2.88;;;;;;;;;;6203677;23;20452;-48
2022/07/21 09:57:12;;;;;;;7.63;3.20;;;;;;;;;;6183374;23;20012;-46
2022/07/21 09:59:39;;;;;;;4.03;2.42;;;;;;;;;;6197328;23;20043;-47
2022/07/21 10:02:06;;;;;;;11.15;2.80;;;;;;;;;;6204867;23;20079;-49
2022/07/21 10:04:34;;;;;;;4.03;2.75;;;;;;;;;;6197417;23;20024;-46
2022/07/21 10:07:02;;;;;;;7.82;3.00;;;;;;;;;;6202349;23;20027;-48
2022/07/21 10:09:28;;;;;;;7.85;3.05;;;;;;;;;;6199281;23;20210;-46
2022/07/21 10:11:55;;;;;;;8.13;2.72;;;;;;;;;;6203906;23;20017;-47
2022/07/21 10:14:22;;;;;;;6.93;2.80;;;;;;;;;;6175386;23;20807;-49
2022/07/21 10:16:50;;;;;;;8.73;2.80;;;;;;;;;;6201771;23;20021;-48
2022/07/21 10:19:20;;;;;;;8.82;2.90;;;;;;;;;;6196588;23;20401;-46
2022/07/21 10:21:49;;;;;;;8.43;2.80;;;;;;;;;;6201463;23;20407;-49
2022/07/21 10:24:16;;;;;;;9.27;3.10;;;;;;;;;;6175518;23;20012;-49
2022/07/21 10:26:58;;;;;;;4.35;2.60;;;;;;;;;;6174081;23;20017;-47
2022/07/21 10:29:43;;;;;;;8.65;3.13;;;;;;;;;;6174705;23;20520;-49
2022/07/21 10:32:12;;;;;;;13.35;4.22;;;;;;;;;;6202678;23;20513;-46
2022/07/21 10:34:39;;;;;;;6.07;2.80;;;;;;;;;;6201254;23;20012;-49
2022/07/21 10:37:06;;;;;;;6.97;3.60;;;;;;;;;;6202002;23;20016;-45
2022/07/21 10:39:34;;;;;;;6.10;2.58;;;;;;;;;;6204087;23;20063;-50
2022/07/21 10:42:02;;;;;;;8.15;2.55;;;;;;;;;;6207675;23;20012;-48
2022/07/21 10:44:47;;;;;;;6.18;2.75;;;;;;;;;;6202637;23;20016;-50
2022/07/21 10:47:19;;;;;;;5.03;3.00;;;;;;;;;;6208997;23;20025;-51
2022/07/21 10:49:55;;;;;;;4.47;3.13;;;;;;;;;;6172476;23;20027;-50
2022/07/21 10:52:41;;;;;;;8.70;3.40;;;;;;;;;;6180488;23;20027;-47
2022/07/21 10:55:16;;;;;;;6.20;3.20;;;;;;;;;;6165481;23;20402;-49
2022/07/21 10:57:46;;;;;;;7.78;3.20;;;;;;;;;;6144075;23;20082;-45
2022/07/21 11:00:21;;;;;;;7.97;3.15;;;;;;;;;;6203926;23;20020;-49
2022/07/21 11:02:51;;;;;;;9.05;3.97;;;;;;;;;;6176265;23;20016;-46
2022/07/21 11:05:17;;;;;;;14.88;4.43;;;;;;;;;;6196487;23;20016;-51
2022/07/21 11:08:03;;;;;;;5.00;3.40;;;;;;;;;;6204611;23;20435;-55
2022/07/21 11:10:31;;;;;;;8.77;4.57;;;;;;;;;;6201493;23;20634;-48
2022/07/21 11:12:58;;;;;;;7.72;4.32;;;;;;;;;;6194588;23;20071;-52
2022/07/21 11:15:46;;;;;;;7.32;4.15;;;;;;;;;;6184596;23;20048;-52
2022/07/21 11:18:18;;;;;;;11.07;4.07;;;;;;;;;;6169957;23;20338;-58
2022/07/21 11:20:58;;;;;;;11.00;4.35;;;;;;;;;;6195162;23;20067;-50
2022/07/21 11:23:35;;;;;;;6.97;3.63;;;;;;;;;;6206612;23;20012;-51
2022/07/21 11:26:01;;;;;;;8.13;3.67;;;;;;;;;;6192046;23;20027;-53
2022/07/21 11:28:28;;;;;;;7.03;4.00;;;;;;;;;;6205722;23;20403;-46
2022/07/21 11:31:06;;;;;;;7.50;3.75;;;;;;;;;;6173549;23;20027;-48
2022/07/21 11:33:36;;;;;;;10.05;4.00;;;;;;;;;;6202698;23;20023;-46
2022/07/21 11:36:03;;;;;;;6.75;3.63;;;;;;;;;;6191577;23;20017;-48
2022/07/21 11:38:30;;;;;;;7.88;3.78;;;;;;;;;;6179836;23;20023;-47
2022/07/21 11:41:12;;;;;;;7.88;3.58;;;;;;;;;;6198199;23;20016;-50
2022/07/21 11:43:45;;;;;;;4.80;3.38;;;;;;;;;;6207475;23;20019;-50
2022/07/21 11:46:12;;;;;;;7.97;3.85;;;;;;;;;;6198447;23;20016;-50
2022/07/21 11:48:41;;;;;;;7.70;4.63;;;;;;;;;;6163491;23;20048;-48
2022/07/21 11:51:07;;;;;;;9.93;4.40;;;;;;;;;;6206558;23;20084;-48
2022/07/21 11:53:34;;;;;;;9.05;4.18;;;;;;;;;;6199431;23;20013;-47
2022/07/21 11:56:01;;;;;;;6.78;4.22;;;;;;;;;;6204586;23;20012;-48
2022/07/21 11:58:27;;;;;;;7.28;3.85;;;;;;;;;;6203492;23;20462;-49
2022/07/21 12:01:04;;;;;;;8.15;3.83;;;;;;;;;;6198603;23;20451;-45
2022/07/21 12:03:31;;;;;;;9.35;3.28;;;;;;;;;;6184624;23;20031;-46
2022/07/21 12:06:01;;;;;;;7.38;3.45;;;;;;;;;;6174012;23;20354;-45
2022/07/21 12:08:28;;;;;;;7.97;4.18;;;;;;;;;;6192473;23;20031;-48
2022/07/21 12:11:04;;;;;;;9.10;3.60;;;;;;;;;;6203063;23;20016;-51
2022/07/21 12:13:31;;;;;;;8.52;3.83;;;;;;;;;;6197520;23;20019;-46
2022/07/21 12:15:57;;;;;;;6.15;3.85;;;;;;;;;;6202968;23;20012;-47
2022/07/21 12:18:25;;;;;;;7.15;3.90;;;;;;;;;;6192828;23;20549;-46
2022/07/21 12:21:01;;;;;;;7.88;4.70;;;;;;;;;;6202911;23;20027;-47
2022/07/21 12:23:30;;;;;;;5.40;3.75;;;;;;;;;;6189748;23;20074;-51
2022/07/21 12:25:58;;;;;;;10.60;4.13;;;;;;;;;;6205748;23;20051;-48
2022/07/21 12:28:39;;;;;;;7.85;3.83;;;;;;;;;;6188078;23;20068;-50
2022/07/21 12:31:10;;;;;;;10.38;3.83;;;;;;;;;;6190002;23;20055;-49
2022/07/21 12:33:37;;;;;;;9.20;4.22;;;;;;;;;;6199881;23;20012;-51
2022/07/21 12:36:04;;;;;;;7.70;4.00;;;;;;;;;;6189119;23;20721;-49
2022/07/21 12:38:38;;;;;;;7.97;4.22;;;;;;;;;;6206063;23;20013;-51
2022/07/21 12:41:05;;;;;;;7.25;3.95;;;;;;;;;;6194615;23;20044;-50
2022/07/21 12:43:31;;;;;;;10.95;4.65;;;;;;;;;;6171150;23;20040;-49
2022/07/21 12:45:59;;;;;;;7.00;4.18;;;;;;;;;;6191632;23;20144;-49
2022/07/21 12:48:27;;;;;;;7.22;4.30;;;;;;;;;;6201848;23;20071;-49
2022/07/21 12:51:01;;;;;;;11.07;4.28;;;;;;;;;;6197137;23;20024;-49
2022/07/21 12:53:28;;;;;;;8.00;4.22;;;;;;;;;;6196454;23;20020;-48
2022/07/21 12:55:55;;;;;;;6.75;4.20;;;;;;;;;;6185573;23;20075;-49
2022/07/21 12:58:23;;;;;;;10.60;4.50;;;;;;;;;;6195696;23;20459;-47
2022/07/21 13:00:50;;;;;;;12.35;4.30;;;;;;;;;;6174961;23;20027;-47
2022/07/21 13:03:16;;;;;;;9.27;4.45;;;;;;;;;;6160923;23;20016;-48
2022/07/21 13:05:43;;;;;;;8.52;4.35;;;;;;;;;;6201678;23;20023;-51
2022/07/21 13:08:09;;;;;;;8.88;4.40;;;;;;;;;;6197307;23;20083;-49
2022/07/21 13:10:36;;;;;;;8.30;4.10;;;;;;;;;;6207384;23;20012;-49
2022/07/21 13:13:03;;;;;;;10.70;4.88;;;;;;;;;;6197069;23;20025;-51
2022/07/21 13:15:30;;;;;;;9.77;4.88;;;;;;;;;;6199423;23;20016;-50
2022/07/21 13:17:58;;;;;;;9.43;5.63;;;;;;;;;;6198742;23;20088;-48
2022/07/21 13:20:25;;;;;;;9.05;5.05;;;;;;;;;;6180516;23;20363;-48
2022/07/21 13:22:51;;;;;;;6.97;5.20;;;;;;;;;;6192629;23;20017;-49
2022/07/21 13:25:18;;;;;;;8.55;5.28;;;;;;;;;;6202052;23;20023;-48
2022/07/21 13:27:45;;;;;;;8.43;4.40;;;;;;;;;;6194719;23;20402;-51
2022/07/21 13:30:13;;;;;;;9.77;4.78;;;;;;;;;;6196839;23;20013;-50
2022/07/21 13:32:40;;;;;;;6.82;4.13;;;;;;;;;;6128141;23;20060;-52
2022/07/21 13:35:07;;;;;;;9.43;5.65;;;;;;;;;;6150880;23;20533;-50
2022/07/21 13:37:35;;;;;;;8.40;4.95;;;;;;;;;;6158389;23;20041;-45
2022/07/21 13:40:01;;;;;;;7.90;5.03;;;;;;;;;;6149813;23;20028;-46
2022/07/21 13:42:28;;;;;;;5.75;4.60;;;;;;;;;;6190931;23;20519;-49
2022/07/21 13:44:54;;;;;;;10.20;4.72;;;;;;;;;;6195155;23;20020;-47
2022/07/21 13:47:22;;;;;;;8.68;5.18;;;;;;;;;;6203772;23;20019;-49
2022/07/21 13:49:49;;;;;;;9.48;4.88;;;;;;;;;;6205170;23;20031;-47
2022/07/21 13:52:15;;;;;;;9.07;4.65;;;;;;;;;;6186533;23;20632;-48
2022/07/21 13:54:42;;;;;;;7.30;4.75;;;;;;;;;;6184535;23;20079;-48
2022/07/21 13:57:08;;;;;;;9.73;5.10;;;;;;;;;;6199204;23;20020;-49
2022/07/21 13:59:35;;;;;;;9.50;4.78;;;;;;;;;;6205517;23;20016;-47
2022/07/21 14:02:01;;;;;;;14.82;4.20;;;;;;;;;;6188378;23;20016;-47
2022/07/21 14:04:29;;;;;;;5.53;3.88;;;;;;;;;;6205755;23;20020;-49
2022/07/21 14:06:56;;;;;;;5.95;4.45;;;;;;;;;;6203638;23;20017;-49
2022/07/21 14:09:22;;;;;;;8.95;4.50;;;;;;;;;;6199308;23;20070;-49
2022/07/21 14:11:49;;;;;;;5.38;3.92;;;;;;;;;;6204098;23;20019;-50
2022/07/21 14:14:21;;;;;;;7.80;4.15;;;;;;;;;;6193988;23;20016;-55
2022/07/21 14:16:48;;;;;;;7.60;5.15;;;;;;;;;;6203001;23;20036;-47
2022/07/21 14:19:15;;;;;;;9.60;5.13;;;;;;;;;;6192922;23;20040;-46
2022/07/21 14:21:43;;;;;;;6.30;4.57;;;;;;;;;;6205573;23;20046;-48
2022/07/21 14:26:53;;;;;;;8.95;4.50;;;;;;;;;;6204077;23;20021;-48
2022/07/21 14:29:19;;;;;;;7.65;4.70;;;;;;;;;;6195829;23;20342;-49
2022/07/21 14:31:46;;;;;;;9.52;4.63;;;;;;;;;;6201021;23;20017;-50
2022/07/21 14:34:13;;;;;;;6.38;4.47;;;;;;;;;;6195346;23;20615;-47
2022/07/21 14:36:39;;;;;;;7.85;4.63;;;;;;;;;;6202279;23;20158;-48
2022/07/21 14:39:07;;;;;;;6.97;4.72;;;;;;;;;;6195931;23;20016;-47
2022/07/21 14:41:34;;;;;;;11.98;5.93;;;;;;;;;;6204701;23;20076;-48
2022/07/21 14:44:01;;;;;;;10.15;3.88;;;;;;;;;;6196267;23;20491;-47
2022/07/21 14:46:27;;;;;;;6.43;4.63;;;;;;;;;;6208118;23;20019;-48
2022/07/21 14:48:54;;;;;;;7.95;4.28;;;;;;;;;;6195048;23;20329;-47
2022/07/21 14:51:20;;;;;;;8.75;5.07;;;;;;;;;;6206519;23;20028;-50
2022/07/21 14:53:47;;;;;;;6.53;5.00;;;;;;;;;;6205526;23;20012;-47